Time;durP1;ratioP1;P1;durP2;ratioP2;P2;SDS_P1;SDS_P2;PMS_P1;PMS_P2;Temp;Humidity;BMP_temperature;BMP_pressure;BME280_temperature;BME280_humidity;BME280_pressure;Samples;Min_cycle;Max_cycle;Signal;HPM_P1;HPM_P2
2021/12/05 00:23:29;;;;;;;6.40;5.00;;;;;;;-2.08;76.55;99201.59;4959634;29;20059;-57
2021/12/05 00:26:19;;;;;;;7.43;5.28;;;;;;;-2.04;77.14;99187.28;4957887;29;20023;-56
2021/12/05 00:41:29;;;;;;;11.07;5.90;;;;;;;-1.86;76.12;99190.22;4959674;28;20047;-56
2021/12/05 01:17:03;;;;;;;8.63;6.00;;;;;;;-2.24;78.59;99189.41;4945665;29;20272;-56
2021/12/05 01:19:49;;;;;;;11.13;5.85;;;;;;;-2.19;78.84;99183.59;4957549;29;20031;-56
2021/12/05 01:22:41;;;;;;;10.50;7.03;;;;;;;-2.23;79.43;99176.75;4959017;29;20086;-56
2021/12/05 01:34:29;;;;;;;10.57;6.97;;;;;;;-2.44;78.09;99131.50;4958250;29;20046;-57
2021/12/05 01:49:14;;;;;;;11.30;8.80;;;;;;;-2.29;78.67;99159.72;4948767;29;20028;-56
2021/12/05 02:37:12;;;;;;;15.90;10.25;;;;;;;-2.23;79.44;99163.22;4954120;29;20059;-57
2021/12/05 02:40:20;;;;;;;15.10;9.52;;;;;;;-2.18;78.66;99184.44;4960093;29;20364;-56
2021/12/05 02:43:12;;;;;;;16.05;9.75;;;;;;;-2.34;80.00;99191.72;4960461;29;20034;-57
2021/12/05 02:46:01;;;;;;;;;;;;;;;-2.15;79.97;99187.06;4961901;29;20082;-56
2021/12/05 02:48:49;;;;;;;15.80;10.35;;;;;;;-2.28;80.41;99189.34;4956470;29;19918;-57
2021/12/05 02:51:35;;;;;;;19.60;11.13;;;;;;;-2.17;80.48;99166.72;4961151;29;20062;-56
2021/12/05 02:54:24;;;;;;;19.67;11.82;;;;;;;-2.33;79.82;99122.44;4961475;29;20039;-57
2021/12/05 02:57:10;;;;;;;18.63;12.55;;;;;;;-1.98;80.23;99182.34;4960643;29;20118;-57
2021/12/05 02:59:58;;;;;;;20.15;12.30;;;;;;;-2.01;79.37;99169.59;4946246;29;20235;-57
2021/12/05 03:02:47;;;;;;;18.30;12.20;;;;;;;-1.96;80.00;99179.00;4962581;29;20055;-58
2021/12/05 03:05:33;;;;;;;19.25;12.35;;;;;;;-1.98;79.31;99174.72;4944015;29;20039;-57
2021/12/05 03:08:20;;;;;;;19.80;12.20;;;;;;;-2.13;80.64;99178.66;4958194;29;20039;-56
2021/12/05 03:11:06;;;;;;;19.52;11.93;;;;;;;-1.96;80.46;99173.09;4961942;29;20023;-57
2021/12/05 03:13:53;;;;;;;20.55;11.88;;;;;;;-1.83;79.88;99181.81;4961009;29;20023;-56
2021/12/05 03:16:40;;;;;;;17.08;11.43;;;;;;;-1.78;79.85;99177.66;4958018;28;20031;-57
2021/12/05 03:19:26;;;;;;;17.42;11.63;;;;;;;-1.76;80.22;99179.41;4947241;29;20034;-56
2021/12/05 03:22:12;;;;;;;19.00;11.98;;;;;;;-1.80;79.87;99181.88;4958353;28;20023;-57
2021/12/05 03:24:58;;;;;;;18.02;12.18;;;;;;;-1.80;80.36;99184.41;4957169;29;20352;-57
2021/12/05 03:27:44;;;;;;;20.63;12.38;;;;;;;-2.01;80.20;99190.75;4954338;29;20016;-57
2021/12/05 03:30:30;;;;;;;17.92;11.40;;;;;;;-2.03;80.23;99186.47;4974207;28;20031;-57
2021/12/05 03:33:16;;;;;;;18.95;11.13;;;;;;;-2.10;80.91;99172.78;4959403;29;20087;-56
2021/12/05 03:36:07;;;;;;;19.88;12.68;;;;;;;-2.19;81.07;99190.38;4952792;28;20058;-57
2021/12/05 03:38:54;;;;;;;16.73;11.93;;;;;;;-2.14;81.31;99168.47;4958092;29;20023;-56
2021/12/05 03:41:41;;;;;;;20.25;12.65;;;;;;;-1.96;80.82;99188.31;4954387;29;20055;-56
2021/12/05 03:44:30;;;;;;;19.83;12.07;;;;;;;-2.52;80.93;99126.28;4952536;28;20038;-56
2021/12/05 03:47:16;;;;;;;22.77;13.35;;;;;;;-2.12;80.32;99182.06;4953665;28;20027;-56
2021/12/05 03:50:09;;;;;;;22.70;14.57;;;;;;;-1.85;80.65;99188.53;4960056;29;20066;-56
2021/12/05 03:52:56;;;;;;;20.08;12.73;;;;;;;-1.64;80.69;99193.16;4956244;28;20110;-57
2021/12/05 03:55:44;;;;;;;18.52;12.73;;;;;;;-1.74;80.82;99202.28;4959532;29;20050;-56
2021/12/05 03:58:32;;;;;;;19.33;13.50;;;;;;;-1.99;79.92;99190.78;4959475;29;20290;-57
2021/12/05 04:01:19;;;;;;;23.02;14.57;;;;;;;-1.85;81.03;99198.66;4958537;29;20103;-57
2021/12/05 04:04:07;;;;;;;21.15;13.18;;;;;;;-1.88;81.30;99213.84;4960020;29;20046;-58
2021/12/05 04:06:54;;;;;;;22.42;14.70;;;;;;;-1.92;81.15;99203.63;4956270;29;20046;-58
2021/12/05 04:09:40;;;;;;;22.17;14.80;;;;;;;-1.81;80.88;99187.75;4950126;29;20139;-58
2021/12/05 04:12:26;;;;;;;27.48;16.00;;;;;;;-1.79;80.85;99208.97;4957751;29;20047;-58
2021/12/05 04:15:13;;;;;;;25.55;14.82;;;;;;;-2.08;81.87;99211.75;4958004;29;20086;-58
2021/12/05 04:17:59;;;;;;;27.25;16.05;;;;;;;-2.24;81.40;99197.00;4943023;29;20036;-58
2021/12/05 04:20:46;;;;;;;27.85;17.08;;;;;;;-1.99;81.84;99196.72;4959502;28;20110;-57
2021/12/05 04:23:33;;;;;;;25.88;16.70;;;;;;;-1.86;80.91;99200.38;4958629;29;20046;-57
2021/12/05 04:26:20;;;;;;;27.77;16.02;;;;;;;-1.66;80.90;99198.22;4957786;29;20464;-57
2021/12/05 04:29:07;;;;;;;26.80;16.95;;;;;;;-1.65;80.93;99199.94;4958511;29;20054;-57
2021/12/05 04:31:53;;;;;;;25.80;16.33;;;;;;;-1.58;80.26;99199.22;4954242;28;20047;-56
2021/12/05 04:34:39;;;;;;;24.48;17.17;;;;;;;-1.56;80.95;99195.03;4956252;29;20093;-57
2021/12/05 04:37:25;;;;;;;27.95;18.38;;;;;;;-1.56;80.08;99205.19;4946339;29;20387;-57
2021/12/05 04:40:12;;;;;;;22.48;16.50;;;;;;;-1.57;80.70;99206.03;4944584;29;20043;-57
2021/12/05 04:42:58;;;;;;;26.05;17.77;;;;;;;-1.49;79.91;99205.31;4941923;29;20217;-56
2021/12/05 04:45:45;;;;;;;26.90;18.70;;;;;;;-1.52;80.54;99215.44;4949877;29;20069;-56
2021/12/05 04:48:31;;;;;;;25.70;18.73;;;;;;;-1.43;80.06;99215.59;4957572;29;20035;-56
2021/12/05 04:51:20;;;;;;;30.80;18.73;;;;;;;-1.63;80.81;99236.34;4955796;29;20019;-56
2021/12/05 04:54:09;;;;;;;26.00;18.73;;;;;;;-1.79;81.31;99214.88;4956674;28;20031;-57
2021/12/05 04:56:55;;;;;;;33.88;19.02;;;;;;;-1.94;81.70;99205.28;4957205;29;20030;-58
2021/12/05 04:59:47;;;;;;;26.23;18.40;;;;;;;-1.83;81.00;99214.81;4957799;29;20031;-57
2021/12/05 05:02:33;;;;;;;29.05;18.55;;;;;;;-1.87;81.20;99213.88;4958827;29;20176;-58
2021/12/05 05:05:19;;;;;;;25.90;17.38;;;;;;;-1.64;81.68;99219.44;4957724;29;20059;-56
2021/12/05 05:08:05;;;;;;;27.92;17.98;;;;;;;-1.62;81.27;99215.22;4957723;29;20351;-57
2021/12/05 05:10:51;;;;;;;26.85;18.60;;;;;;;-1.64;81.41;99221.09;4949730;29;20336;-58
2021/12/05 05:13:38;;;;;;;27.75;17.23;;;;;;;-1.56;81.34;99220.41;4950639;29;20070;-57
2021/12/05 05:16:26;;;;;;;26.38;18.10;;;;;;;-1.69;81.46;99223.56;4952104;28;20078;-57
2021/12/05 05:19:14;;;;;;;27.50;18.38;;;;;;;-1.68;80.99;99227.81;4955061;28;20413;-57
2021/12/05 05:28:25;;;;;;;27.83;17.73;;;;;;;-1.30;80.67;99237.00;4941335;29;20239;-58
2021/12/05 05:46:38;;;;;;;24.65;17.70;;;;;;;-1.14;81.61;99250.84;4915731;29;20044;-57
2021/12/05 05:49:47;;;;;;;25.85;16.67;;;;;;;-1.20;81.38;99258.34;4953856;29;20027;-57
2021/12/05 05:52:32;;;;;;;24.80;17.50;;;;;;;-1.23;82.38;99259.16;4958572;29;20035;-57
2021/12/05 05:55:18;;;;;;;25.90;16.90;;;;;;;-1.15;81.62;99254.22;4940707;29;20054;-57
2021/12/05 05:58:12;;;;;;;28.52;17.95;;;;;;;-1.11;81.68;99261.94;4957416;29;20266;-56
2021/12/05 06:01:02;;;;;;;28.40;17.67;;;;;;;-1.06;81.21;99260.31;4940765;29;20595;-58
2021/12/05 06:03:49;;;;;;;24.38;16.50;;;;;;;-1.00;82.38;99257.03;4941613;29;20023;-58
2021/12/05 06:06:35;;;;;;;23.33;15.73;;;;;;;-1.02;81.07;99271.41;4955973;29;20063;-57
2021/12/05 06:09:21;;;;;;;22.85;15.88;;;;;;;-1.02;82.28;99273.94;4944105;29;20023;-57
2021/12/05 06:12:07;;;;;;;32.92;17.88;;;;;;;-0.93;81.74;99269.00;4956456;29;20316;-58
2021/12/05 06:14:53;;;;;;;24.73;16.73;;;;;;;-0.88;81.53;99276.75;4957231;29;20480;-58
2021/12/05 06:17:40;;;;;;;27.13;17.45;;;;;;;-1.13;83.20;99266.09;4955383;29;20319;-58
2021/12/05 06:20:29;;;;;;;24.55;16.08;;;;;;;-0.85;81.83;99270.84;4955844;29;20135;-58
2021/12/05 06:23:15;;;;;;;29.55;18.42;;;;;;;-0.84;82.31;99270.88;4956626;29;20276;-59
2021/12/05 06:26:02;;;;;;;26.10;16.95;;;;;;;-1.09;82.51;99275.50;4953865;29;20045;-58
2021/12/05 06:37:53;;;;;;;23.77;14.93;;;;;;;-0.57;81.86;99272.16;4957459;29;20059;-59
2021/12/05 06:46:31;;;;;;;20.15;14.60;;;;;;;-0.45;80.68;99279.16;4956282;29;20035;-60
2021/12/05 06:49:17;;;;;;;22.50;15.00;;;;;;;-0.47;80.88;99280.81;4956285;29;20027;-58
2021/12/05 06:52:04;;;;;;;21.58;15.13;;;;;;;-0.40;80.38;99282.63;4952021;29;20058;-58
2021/12/05 06:54:50;;;;;;;24.30;15.70;;;;;;;-0.38;80.68;99293.69;4955989;29;20039;-57
2021/12/05 06:57:36;;;;;;;24.65;14.85;;;;;;;-0.29;81.24;99300.63;4959803;29;20063;-59
2021/12/05 07:00:26;;;;;;;22.70;15.02;;;;;;;-0.30;80.74;99309.06;4944567;28;20050;-59
2021/12/05 07:03:12;;;;;;;24.40;15.18;;;;;;;-0.46;80.82;99303.72;4955522;29;20042;-55
2021/12/05 07:06:07;;;;;;;23.55;15.80;;;;;;;-0.33;81.38;99317.50;4959016;29;20032;-55
2021/12/05 07:08:55;;;;;;;23.65;16.40;;;;;;;-0.33;81.08;99311.56;4946057;29;20030;-56
2021/12/05 07:14:48;;;;;;;24.45;16.13;;;;;;;-0.31;80.50;99323.47;4951419;29;20035;-57
2021/12/05 07:20:37;;;;;;;25.23;16.50;;;;;;;-0.19;80.46;99331.28;4953945;29;20035;-57
2021/12/05 07:24:07;;;;;;;24.65;16.08;;;;;;;-0.22;81.00;99333.78;4955357;29;20034;-58
2021/12/05 07:42:11;;;;;;;22.90;15.40;;;;;;;-0.11;81.65;99331.44;4959661;29;20046;-58
2021/12/05 07:45:01;;;;;;;22.50;15.70;;;;;;;-0.28;80.86;99328.63;4956991;29;20059;-57
2021/12/05 07:47:52;;;;;;;23.48;15.85;;;;;;;-0.28;81.79;99335.41;4957611;29;20031;-58
2021/12/05 07:50:55;;;;;;;23.02;14.88;;;;;;;-0.20;81.52;99347.41;4956945;29;20040;-58
2021/12/05 07:57:10;;;;;;;22.83;14.83;;;;;;;-0.01;81.88;99332.44;4932291;29;20043;-57
2021/12/05 08:15:16;;;;;;;25.40;15.27;;;;;;;-0.04;81.32;99347.66;4957854;29;20039;-59
2021/12/05 08:18:02;;;;;;;22.08;14.43;;;;;;;0.02;81.55;99345.22;4955191;29;20386;-59
2021/12/05 08:20:48;;;;;;;21.88;14.88;;;;;;;0.08;81.13;99347.00;4955098;29;20320;-58
2021/12/05 08:23:35;;;;;;;22.67;14.95;;;;;;;0.20;80.51;99338.69;4956760;29;20320;-59
2021/12/05 08:26:26;;;;;;;23.75;14.75;;;;;;;0.27;81.36;99337.94;4959621;29;20046;-58
2021/12/05 08:29:17;;;;;;;24.27;15.23;;;;;;;0.20;80.47;99347.19;4957760;29;20031;-59
2021/12/05 08:32:16;;;;;;;21.92;15.27;;;;;;;0.20;80.39;99331.91;4956927;29;20023;-57
2021/12/05 08:35:14;;;;;;;25.73;15.95;;;;;;;0.23;80.34;99329.41;4957352;29;20131;-58
2021/12/05 10:02:39;;;;;;;27.70;16.35;;;;;;;0.33;81.43;99383.88;4957443;29;20086;-58
2021/12/05 10:08:43;;;;;;;24.63;16.23;;;;;;;0.45;81.38;99371.31;4941276;29;20032;-59
2021/12/05 10:14:58;;;;;;;27.15;14.48;;;;;;;0.46;80.95;99369.63;4936730;29;20039;-58
2021/12/05 10:36:25;;;;;;;23.50;16.50;;;;;;;0.43;81.38;99365.34;4940411;29;20074;-60
2021/12/05 10:39:21;;;;;;;22.40;15.20;;;;;;;0.40;81.23;99354.25;4923466;29;20110;-58
2021/12/05 10:42:38;;;;;;;24.88;15.55;;;;;;;0.24;81.19;99307.34;4925744;29;20043;-59
2021/12/05 10:45:41;;;;;;;22.70;15.70;;;;;;;0.55;81.97;99358.72;4910541;29;20297;-62
2021/12/05 10:48:33;;;;;;;21.55;15.35;;;;;;;0.23;81.35;99309.03;4933651;29;20039;-59
2021/12/05 10:51:21;;;;;;;;;;;;;;;0.66;81.64;99372.44;4941438;29;20040;-60
2021/12/05 10:54:17;;;;;;;23.17;15.25;;;;;;;0.37;80.97;99323.63;4955038;29;19918;-60
2021/12/05 10:57:03;;;;;;;25.10;16.05;;;;;;;0.75;81.11;99380.19;4958453;28;20031;-59
2021/12/05 10:59:49;;;;;;;27.10;16.50;;;;;;;0.77;80.86;99376.00;4958847;29;20031;-58
2021/12/05 11:02:35;;;;;;;25.23;15.38;;;;;;;0.58;81.09;99376.56;4956841;29;20042;-58
2021/12/05 11:05:35;;;;;;;23.80;15.85;;;;;;;0.34;81.54;99316.81;4960007;29;20078;-58
2021/12/05 11:08:36;;;;;;;24.38;15.63;;;;;;;0.72;81.22;99400.56;4959685;28;20035;-60
2021/12/05 11:11:23;;;;;;;24.05;17.20;;;;;;;0.71;81.16;99378.44;4959936;29;20039;-60
2021/12/05 11:14:12;;;;;;;22.40;15.52;;;;;;;0.01;80.99;99315.50;4956927;29;20062;-60
2021/12/05 11:17:10;;;;;;;22.48;15.55;;;;;;;0.54;81.91;99383.31;4943259;29;20038;-60
2021/12/05 11:20:28;;;;;;;23.15;15.07;;;;;;;0.64;81.46;99385.19;4959090;29;20072;-60
2021/12/05 11:23:18;;;;;;;23.17;16.00;;;;;;;0.62;81.50;99358.81;4951381;28;20071;-59
2021/12/05 11:26:19;;;;;;;25.48;16.95;;;;;;;0.64;81.05;99376.66;4943700;29;20070;-60
2021/12/05 11:29:07;;;;;;;24.43;16.07;;;;;;;0.57;81.27;99383.38;4957890;28;20039;-60
2021/12/05 11:32:06;;;;;;;27.20;16.65;;;;;;;0.69;80.75;99408.16;4949229;28;20434;-59
2021/12/05 11:34:52;;;;;;;23.55;16.10;;;;;;;0.74;80.78;99391.25;4958282;28;20038;-59
2021/12/05 11:38:03;;;;;;;24.08;15.88;;;;;;;0.66;80.77;99375.00;4955004;29;20046;-59
2021/12/05 11:40:58;;;;;;;22.80;16.25;;;;;;;0.46;80.75;99401.03;4959949;29;20106;-59
2021/12/05 11:43:47;;;;;;;22.02;15.18;;;;;;;0.14;80.82;99340.31;4957974;29;20039;-60
2021/12/05 11:46:39;;;;;;;23.65;15.60;;;;;;;0.60;81.42;99393.59;4944214;28;20043;-58
2021/12/05 11:49:25;;;;;;;22.98;16.25;;;;;;;0.66;81.01;99392.84;4944016;29;20023;-59
2021/12/05 11:52:12;;;;;;;19.10;14.35;;;;;;;0.64;81.34;99394.50;4957985;29;20043;-60
2021/12/05 11:54:58;;;;;;;23.42;15.85;;;;;;;0.59;81.17;99396.13;4954028;29;20023;-59
2021/12/05 11:57:44;;;;;;;23.73;15.85;;;;;;;0.46;80.82;99398.50;4946335;29;20077;-59
2021/12/05 12:00:31;;;;;;;25.98;16.92;;;;;;;0.32;81.42;99405.06;4958368;29;20773;-60
2021/12/05 12:03:33;;;;;;;26.58;16.33;;;;;;;-0.03;81.38;99357.00;4959789;29;20042;-59
2021/12/05 12:06:19;;;;;;;26.88;17.02;;;;;;;0.42;81.75;99409.47;4957542;29;20273;-59
2021/12/05 12:09:06;;;;;;;25.85;16.88;;;;;;;0.46;81.48;99406.13;4960061;29;20035;-60
2021/12/05 12:11:52;;;;;;;25.70;17.13;;;;;;;0.29;81.87;99413.53;4956496;29;20090;-59
2021/12/05 12:14:38;;;;;;;25.98;17.13;;;;;;;0.36;81.57;99413.59;4958474;29;20035;-59
2021/12/05 12:17:24;;;;;;;22.27;16.33;;;;;;;0.23;81.77;99410.88;4951668;29;20032;-60
2021/12/05 12:20:12;;;;;;;22.23;16.38;;;;;;;0.29;81.99;99410.13;4953074;29;20049;-59
2021/12/05 12:22:59;;;;;;;26.88;17.25;;;;;;;0.15;82.11;99423.47;4957107;29;20339;-59
2021/12/05 12:25:50;;;;;;;25.75;15.95;;;;;;;0.27;82.03;99410.09;4953023;29;20031;-58
2021/12/05 12:28:37;;;;;;;24.88;15.70;;;;;;;0.39;81.35;99434.91;4956885;29;20084;-59
2021/12/05 12:31:32;;;;;;;24.80;16.30;;;;;;;0.44;81.64;99412.91;4946457;29;20035;-59
2021/12/05 12:34:22;;;;;;;24.73;16.67;;;;;;;0.57;81.08;99411.41;4957573;29;20031;-58
2021/12/05 12:37:10;;;;;;;23.10;15.15;;;;;;;0.39;80.68;99357.66;4956948;29;20414;-59
2021/12/05 12:39:56;;;;;;;25.63;17.23;;;;;;;0.63;80.17;99403.84;4942735;29;20063;-58
2021/12/05 12:42:42;;;;;;;21.98;14.05;;;;;;;0.68;80.86;99407.31;4954820;29;20042;-59
2021/12/05 12:45:36;;;;;;;24.80;15.75;;;;;;;0.77;80.23;99418.44;4950093;29;20397;-58
2021/12/05 12:48:28;;;;;;;22.40;15.25;;;;;;;0.58;80.33;99417.34;4957331;29;20054;-58
2021/12/05 12:51:34;;;;;;;24.23;15.60;;;;;;;0.75;81.00;99415.88;4959571;28;20086;-60
2021/12/05 12:54:40;;;;;;;28.15;15.23;;;;;;;0.75;81.04;99423.53;4954377;28;20391;-59
2021/12/05 12:57:34;;;;;;;23.17;16.10;;;;;;;0.60;80.09;99424.19;4957869;29;20035;-59
2021/12/05 13:00:24;;;;;;;26.67;16.08;;;;;;;0.44;81.11;99435.84;4955351;29;20027;-59
2021/12/05 13:03:26;;;;;;;24.00;15.57;;;;;;;0.26;81.33;99369.34;4956588;29;20133;-59
2021/12/05 13:12:40;;;;;;;30.73;15.98;;;;;;;0.74;80.52;99444.78;4958663;29;20039;-59
2021/12/05 13:15:39;;;;;;;24.75;14.73;;;;;;;0.87;80.68;99435.59;4952714;29;20035;-59
2021/12/05 13:18:34;;;;;;;21.02;14.93;;;;;;;0.54;80.79;99373.13;4941907;29;20111;-58
2021/12/05 13:21:38;;;;;;;22.55;14.43;;;;;;;0.57;80.57;99374.84;4943552;28;20035;-59
2021/12/05 13:24:32;;;;;;;21.73;14.48;;;;;;;0.89;80.29;99439.03;4958734;29;20058;-59
2021/12/05 13:27:31;;;;;;;23.58;14.23;;;;;;;0.81;80.17;99459.31;4955344;29;20035;-59
2021/12/05 13:30:33;;;;;;;22.83;15.27;;;;;;;0.47;80.46;99430.78;4958006;29;20082;-60
2021/12/05 13:33:25;;;;;;;28.20;15.20;;;;;;;0.70;81.16;99450.66;4959729;28;20343;-59
2021/12/05 13:36:30;;;;;;;20.42;14.20;;;;;;;0.78;80.81;99455.84;4946385;29;20044;-60
2021/12/05 13:39:36;;;;;;;21.58;14.10;;;;;;;0.72;81.04;99459.16;4950205;29;20043;-59
2021/12/05 13:42:39;;;;;;;22.77;14.98;;;;;;;0.60;81.73;99459.84;4957284;29;20054;-60
2021/12/05 13:45:27;;;;;;;22.13;14.48;;;;;;;0.77;82.34;99465.19;4948622;29;20268;-59
2021/12/05 13:48:28;;;;;;;17.27;14.25;;;;;;;0.47;81.94;99407.88;4957899;28;20077;-59
2021/12/05 13:51:22;;;;;;;19.58;13.88;;;;;;;0.44;81.80;99397.63;4941917;29;20027;-59
2021/12/05 13:54:24;;;;;;;23.20;13.98;;;;;;;0.80;82.07;99452.50;4954194;29;20094;-59
2021/12/05 13:57:10;;;;;;;21.33;14.60;;;;;;;0.92;80.76;99468.81;4951486;29;20481;-58
2021/12/05 13:59:56;;;;;;;21.58;13.32;;;;;;;0.97;81.00;99474.81;4947901;29;20362;-59
2021/12/05 14:02:54;;;;;;;23.48;15.43;;;;;;;0.98;81.16;99461.22;4957317;29;20042;-59
2021/12/05 14:05:47;;;;;;;21.75;14.32;;;;;;;1.02;81.25;99470.63;4959199;28;20584;-59
2021/12/05 14:08:39;;;;;;;25.55;17.00;;;;;;;1.06;81.43;99462.19;4962658;28;20039;-59
2021/12/05 14:11:26;;;;;;;40.08;25.25;;;;;;;1.08;81.32;99480.91;4962232;29;20173;-58
2021/12/05 14:14:14;;;;;;;22.08;14.68;;;;;;;1.04;81.40;99476.59;4959407;29;20086;-59
2021/12/05 14:17:06;;;;;;;21.23;14.20;;;;;;;0.73;81.16;99422.66;4932277;29;20124;-59
2021/12/05 14:20:03;;;;;;;21.77;14.73;;;;;;;0.86;80.26;99485.72;4946012;29;20062;-59
2021/12/05 14:22:50;;;;;;;20.80;15.00;;;;;;;0.71;81.07;99482.94;4961548;29;20023;-60
2021/12/05 14:25:36;;;;;;;21.90;14.40;;;;;;;0.59;82.00;99481.06;4962392;28;20070;-58
2021/12/05 14:28:22;;;;;;;22.83;14.00;;;;;;;0.34;82.18;99477.25;4961211;29;20256;-59
2021/12/05 14:31:08;;;;;;;20.95;14.57;;;;;;;0.48;82.65;99483.44;4960963;29;20046;-58
2021/12/05 14:33:55;;;;;;;19.02;14.00;;;;;;;0.44;81.74;99486.78;4969896;28;20035;-59
2021/12/05 14:36:46;;;;;;;18.20;13.20;;;;;;;0.12;81.87;99436.16;4944462;29;20427;-58
2021/12/05 14:39:50;;;;;;;20.50;13.32;;;;;;;0.49;82.07;99508.09;4945966;29;20054;-58
2021/12/05 14:42:41;;;;;;;19.83;13.90;;;;;;;0.69;81.62;99515.19;4957782;29;20078;-58
2021/12/05 14:45:29;;;;;;;20.55;13.60;;;;;;;0.74;82.10;99477.91;4949747;29;20318;-57
2021/12/05 14:48:15;;;;;;;19.67;13.43;;;;;;;0.70;81.44;99473.59;4960944;28;20328;-59
2021/12/05 14:51:02;;;;;;;18.80;13.40;;;;;;;0.63;81.38;99484.53;4952107;29;20148;-58
2021/12/05 14:53:48;;;;;;;17.55;13.02;;;;;;;0.84;81.81;99496.72;4952994;29;20094;-58
2021/12/05 14:56:36;;;;;;;19.63;14.02;;;;;;;0.91;80.99;99506.16;4951284;29;20027;-57
2021/12/05 14:59:22;;;;;;;20.55;13.32;;;;;;;0.95;81.80;99502.81;4958683;29;20038;-58
2021/12/05 15:02:10;;;;;;;22.92;14.38;;;;;;;0.76;80.74;99503.41;4953344;29;20035;-59
2021/12/05 15:04:56;;;;;;;18.42;13.55;;;;;;;0.84;80.84;99507.78;4951492;29;20028;-59
2021/12/05 15:07:43;;;;;;;18.30;13.43;;;;;;;0.80;80.46;99500.94;4961304;29;20028;-59
2021/12/05 15:10:29;;;;;;;20.10;13.32;;;;;;;0.80;81.16;99513.66;4957454;29;20027;-58
2021/12/05 15:13:17;;;;;;;19.77;12.93;;;;;;;0.58;80.93;99447.91;4954642;29;20023;-59
2021/12/05 15:16:04;;;;;;;21.92;13.82;;;;;;;0.96;80.80;99521.56;4958117;28;20023;-58
2021/12/05 15:18:50;;;;;;;26.20;14.07;;;;;;;1.02;80.76;99513.97;4964055;28;20039;-57
2021/12/05 15:21:43;;;;;;;18.05;13.63;;;;;;;0.95;80.26;99518.13;4957253;29;20070;-58
2021/12/05 15:24:29;;;;;;;19.02;12.55;;;;;;;0.99;80.41;99524.97;4946197;29;20042;-58
2021/12/05 15:27:18;;;;;;;22.65;13.50;;;;;;;0.55;80.81;99468.25;4958185;28;20027;-59
2021/12/05 15:30:28;;;;;;;17.40;13.10;;;;;;;0.95;80.29;99520.69;4958364;29;20081;-58
2021/12/05 15:33:24;;;;;;;23.23;14.27;;;;;;;0.85;80.64;99517.13;4959006;29;20031;-60
2021/12/05 15:36:10;;;;;;;18.33;13.43;;;;;;;0.91;81.00;99513.81;4953908;29;20038;-57
2021/12/05 15:38:56;;;;;;;21.35;14.88;;;;;;;0.96;80.68;99521.56;4957245;29;20288;-57
2021/12/05 15:41:42;;;;;;;22.00;13.52;;;;;;;1.02;80.89;99524.19;4954927;28;20213;-59
2021/12/05 15:44:36;;;;;;;20.33;13.55;;;;;;;0.98;80.01;99517.31;4943692;29;20063;-59
2021/12/05 15:47:25;;;;;;;23.35;14.95;;;;;;;0.94;79.98;99536.81;4955772;29;20031;-58
2021/12/05 15:50:16;;;;;;;19.70;14.27;;;;;;;0.79;79.81;99511.09;4957395;29;20098;-59
2021/12/05 15:53:10;;;;;;;19.70;13.45;;;;;;;0.94;80.37;99513.88;4954432;28;20031;-59
2021/12/05 15:56:03;;;;;;;21.63;14.02;;;;;;;0.68;80.82;99460.84;4954318;28;20219;-58
2021/12/05 15:58:58;;;;;;;26.23;17.95;;;;;;;0.74;80.47;99505.94;4955022;28;20027;-58
2021/12/05 16:01:44;;;;;;;30.38;20.35;;;;;;;1.02;79.84;99531.84;4958926;28;20043;-58
2021/12/05 16:04:30;;;;;;;34.20;21.77;;;;;;;1.01;79.95;99527.56;4953599;29;20031;-58
2021/12/05 16:07:17;;;;;;;33.92;22.33;;;;;;;0.85;79.75;99532.41;4948961;29;20063;-59
2021/12/05 16:10:13;;;;;;;33.05;20.35;;;;;;;0.81;79.92;99525.59;4935561;29;20214;-58
2021/12/05 16:13:09;;;;;;;36.90;22.50;;;;;;;0.68;79.60;99555.13;4950400;28;20027;-59
2021/12/05 16:16:16;;;;;;;41.33;21.75;;;;;;;0.26;80.09;99487.31;4951272;28;20047;-59
2021/12/05 16:19:09;;;;;;;27.77;18.70;;;;;;;0.25;79.83;99505.13;4958645;29;20027;-61
2021/12/05 16:21:55;;;;;;;30.05;18.88;;;;;;;0.61;79.63;99547.34;4960152;28;20323;-59
2021/12/05 16:24:41;;;;;;;27.23;17.80;;;;;;;0.55;79.70;99552.34;4959038;28;20035;-59
2021/12/05 16:27:27;;;;;;;28.13;18.95;;;;;;;0.50;79.41;99555.66;4958033;29;20039;-60
2021/12/05 16:30:24;;;;;;;27.48;18.00;;;;;;;0.54;78.94;99558.25;4953142;29;20023;-59
2021/12/05 16:33:13;;;;;;;28.77;17.73;;;;;;;0.54;79.48;99571.84;4951867;29;20366;-59
2021/12/05 16:36:00;;;;;;;29.50;17.15;;;;;;;0.48;79.55;99539.47;4957363;29;20027;-59
2021/12/05 16:38:50;;;;;;;26.90;17.35;;;;;;;0.26;79.01;99560.34;4956412;29;20042;-58
2021/12/05 16:41:36;;;;;;;28.70;18.35;;;;;;;-0.11;80.27;99567.28;4945380;29;20067;-63
2021/12/05 16:44:26;;;;;;;32.75;19.60;;;;;;;-0.54;80.40;99496.88;4954251;29;20031;-58
2021/12/05 16:47:15;;;;;;;30.38;18.33;;;;;;;-0.49;79.96;99496.13;4948660;29;20029;-59
2021/12/05 16:50:04;;;;;;;29.90;18.48;;;;;;;-0.09;80.49;99565.59;4952127;28;20359;-58
2021/12/05 16:52:52;;;;;;;29.40;18.48;;;;;;;-0.16;80.85;99573.94;4959802;29;20574;-60
2021/12/05 16:55:45;;;;;;;28.17;16.52;;;;;;;-0.60;79.93;99514.56;4951143;29;20036;-59
2021/12/05 16:58:31;;;;;;;27.10;17.27;;;;;;;-0.01;80.73;99584.44;4947593;28;20046;-59
2021/12/05 17:01:20;;;;;;;26.60;17.75;;;;;;;-0.52;80.31;99527.44;4945543;29;20032;-57
2021/12/05 17:04:06;;;;;;;28.92;17.48;;;;;;;-0.53;80.88;99586.75;4956268;29;20369;-58
2021/12/05 17:06:54;;;;;;;25.83;16.58;;;;;;;-0.25;80.78;99602.63;4955413;29;20328;-58
2021/12/05 17:09:41;;;;;;;25.92;16.33;;;;;;;-0.14;80.19;99593.50;4959289;29;20047;-62
2021/12/05 17:12:30;;;;;;;28.17;17.33;;;;;;;-0.34;80.25;99544.78;4958186;29;20252;-58
2021/12/05 17:15:18;;;;;;;29.58;16.98;;;;;;;0.00;79.64;99603.97;4957789;29;20099;-57
2021/12/05 17:18:15;;;;;;;31.48;16.38;;;;;;;-0.52;80.11;99627.47;4955585;29;20041;-58
2021/12/05 17:21:06;;;;;;;30.60;16.73;;;;;;;-0.58;80.36;99606.16;4941879;29;20036;-56
2021/12/05 17:24:05;;;;;;;29.88;17.08;;;;;;;-0.57;80.61;99606.19;4959373;28;20073;-59
2021/12/05 17:27:00;;;;;;;25.88;16.15;;;;;;;-0.76;81.28;99606.59;4943391;28;20031;-58
2021/12/05 17:29:46;;;;;;;29.75;16.85;;;;;;;-0.80;81.42;99599.72;4945558;29;20232;-57
2021/12/05 17:32:35;;;;;;;31.08;18.33;;;;;;;-0.77;81.21;99636.25;4955794;29;20681;-59
2021/12/05 17:35:25;;;;;;;27.73;17.27;;;;;;;-1.49;81.42;99517.66;4953384;28;20058;-58
2021/12/05 17:38:11;;;;;;;27.90;16.88;;;;;;;-0.72;81.56;99613.47;4945988;29;20280;-58
2021/12/05 17:40:58;;;;;;;28.40;16.88;;;;;;;-0.89;81.74;99618.16;4955714;28;20058;-57
2021/12/05 17:43:45;;;;;;;29.75;18.05;;;;;;;-0.92;82.81;99620.63;4949130;29;20057;-57
2021/12/05 17:46:33;;;;;;;28.88;17.45;;;;;;;-0.91;81.78;99638.47;4958111;29;20105;-58
2021/12/05 17:49:22;;;;;;;29.42;16.30;;;;;;;-1.31;81.37;99573.97;4957826;29;20020;-58
2021/12/05 17:52:11;;;;;;;29.38;16.90;;;;;;;-1.45;82.06;99565.16;4957955;29;20300;-56
2021/12/05 17:55:06;;;;;;;24.35;15.93;;;;;;;-1.32;82.49;99628.13;4958240;29;20102;-57
2021/12/05 17:57:59;;;;;;;30.27;16.45;;;;;;;-1.16;82.01;99633.59;4956487;29;20019;-56
2021/12/05 18:00:57;;;;;;;29.02;16.75;;;;;;;-1.16;81.79;99652.22;4958781;29;20267;-57
2021/12/05 18:03:44;;;;;;;28.60;16.35;;;;;;;-1.39;83.04;99621.19;4957475;29;20043;-57
2021/12/05 18:06:30;;;;;;;28.02;17.58;;;;;;;-1.04;82.88;99639.00;4945465;29;20097;-58
2021/12/05 18:09:16;;;;;;;31.52;17.23;;;;;;;-1.04;82.14;99639.00;4957111;29;20027;-58
2021/12/05 18:12:03;;;;;;;28.50;16.08;;;;;;;-0.91;81.96;99646.09;4950052;29;20046;-57
2021/12/05 18:14:51;;;;;;;28.17;16.08;;;;;;;-0.94;82.47;99612.09;4956464;29;20043;-57
2021/12/05 18:17:37;;;;;;;27.88;14.68;;;;;;;-0.64;80.77;99641.59;4957000;29;20341;-60
2021/12/05 18:20:26;;;;;;;28.10;14.85;;;;;;;-0.78;79.78;99643.84;4958374;29;20077;-57
2021/12/05 18:23:12;;;;;;;26.00;15.57;;;;;;;-0.88;80.41;99643.59;4940822;29;20031;-56
2021/12/05 18:25:58;;;;;;;27.38;16.15;;;;;;;-1.05;79.70;99658.44;4957892;29;20043;-57
2021/12/05 18:28:49;;;;;;;56.53;30.15;;;;;;;-0.85;81.15;99660.63;4958601;29;20040;-57
2021/12/05 18:31:36;;;;;;;25.48;15.88;;;;;;;-0.89;79.85;99658.81;4966165;28;20054;-58
2021/12/05 18:34:27;;;;;;;30.85;15.98;;;;;;;-0.84;79.81;99664.00;4958803;29;20111;-57